Aeroporto :
LOGIN :

Iscrizione | Disclaimer

   EN    FR    IT 

 










Sommario :    VFR   VFR Marginale   IFR   IFR Intensivo   IFR Molto Intensivo
Visibilità : 
Base nubi : 
>= 8 km
>= 3000ft
5 / 8 km
1000 / 3000 ft
1500m / 5 km
500 / 1000 ft
800 / 1500m
200 / 500 ft
< 800m
< 200 ft
Simboli :   Temporali  Nebbia  Neve Forte  Precipitazioni Forti  Vento > 20 kt
SIGMETs :   Varie  Temporali  Ghiacco  Turbolenza  Onda orograficha  Ceneri Vulcaniche







- Altitudine del aeroporto : -11 ft
- Codice IATA : AMS


EHAM - Amsterdam Schiphol

ULTIMO METAR :
  • 222125Z 19006KT CAVOK 15/11 Q1025 NOSIG

METARs OBSOLETI :
  • 222055Z 19004KT CAVOK 15/11 Q1025 NOSIG
  • 222025Z 19007KT CAVOK 15/10 Q1025 NOSIG
  • 221955Z 19005KT CAVOK 15/10 Q1025 NOSIG
  • 221925Z 21006KT CAVOK 16/09 Q1025 NOSIG
  • 221855Z 21007KT CAVOK 17/09 Q1024 NOSIG

TAF TAF EHAM
Valido dal 22 a 18 ore il 24 a 00 ore UTC


221646Z 2218/2324 25011KT CAVOK
BECMG 2218/2220 19004KT
BECMG 2314/2317 06005KT
Nessun NOTAM noto per questo aeroporto.



MetMap, La meteo Aeronautica in un colpo d'occhio ! - Copyright ORBIFLY Dicembre 2007 - Disclaimer

ORBIFLY MET'MAP TEAM :

Programmazione e sviluppo : Alexandra Zaïnal
Concezione e sviluppo : Baudouin d'Aumeries
Co-Programmazione e sviluppo : Marc-Olivier Méhu
Supporto tecnico e logistico : Manuel Goepfert
Aiuto per la traduzione : Arnaldo La Scala

Contatto : metmap@orbifly.com




FONTI E CREDITI :

   NOAA